Time;durP1;ratioP1;P1;durP2;ratioP2;P2;SDS_P1;SDS_P2;PMS_P1;PMS_P2;Temp;Humidity;BMP_temperature;BMP_pressure;BME280_temperature;BME280_humidity;BME280_pressure;Samples;Min_cycle;Max_cycle;Signal;HPM_P1;HPM_P2
2023/12/23 00:01:34;;;;;;;9.03;1.13;;;7.70;99.90;;;;;;5004026;28;20029;-82
2023/12/23 00:04:01;;;;;;;7.83;1.17;;;7.70;99.90;;;;;;5002580;28;20490;-82
2023/12/23 00:06:26;;;;;;;10.17;1.13;;;7.70;99.90;;;;;;5004520;28;20085;-84
2023/12/23 00:08:52;;;;;;;8.43;1.43;;;7.70;99.90;;;;;;5008337;28;20025;-83
2023/12/23 00:11:18;;;;;;;12.30;1.37;;;7.80;99.90;;;;;;5007098;28;20033;-83
2023/12/23 00:13:44;;;;;;;12.83;1.30;;;7.80;99.90;;;;;;5006701;28;20026;-83
2023/12/23 00:16:09;;;;;;;7.13;0.90;;;7.80;99.90;;;;;;5005069;28;20026;-83
2023/12/23 00:18:35;;;;;;;10.83;1.30;;;7.80;99.90;;;;;;5006864;28;20043;-83
2023/12/23 00:21:01;;;;;;;13.00;1.07;;;7.80;99.90;;;;;;5004856;28;20389;-82
2023/12/23 00:23:26;;;;;;;11.00;1.30;;;7.80;99.90;;;;;;5006084;28;20036;-82
2023/12/23 00:25:52;;;;;;;11.60;1.27;;;7.80;99.90;;;;;;5005521;28;20053;-81
2023/12/23 00:28:18;;;;;;;14.60;1.33;;;7.80;99.90;;;;;;5022744;28;20030;-82
2023/12/23 00:30:43;;;;;;;12.43;1.13;;;7.80;99.90;;;;;;5006367;28;20025;-81
2023/12/23 00:33:09;;;;;;;12.60;1.50;;;7.80;99.90;;;;;;5005086;28;20026;-82
2023/12/23 00:35:35;;;;;;;6.50;0.93;;;7.80;99.90;;;;;;5005472;28;20093;-82
2023/12/23 00:38:00;;;;;;;8.13;1.27;;;7.80;99.90;;;;;;5004787;28;20056;-82
2023/12/23 00:40:26;;;;;;;11.40;1.30;;;7.80;99.90;;;;;;5005952;28;20423;-83
2023/12/23 00:42:52;;;;;;;15.63;1.33;;;7.80;99.90;;;;;;5005330;28;20026;-82
2023/12/23 00:45:17;;;;;;;11.43;1.27;;;7.80;99.90;;;;;;5005156;28;20029;-82
2023/12/23 00:47:43;;;;;;;10.90;1.30;;;7.80;99.90;;;;;;5006283;28;20453;-82
2023/12/23 00:50:09;;;;;;;12.77;1.73;;;7.80;99.90;;;;;;5004445;28;20040;-82
2023/12/23 00:52:35;;;;;;;13.30;1.23;;;7.80;99.90;;;;;;5006049;28;20022;-83
2023/12/23 00:55:02;;;;;;;11.90;1.47;;;7.80;99.90;;;;;;5004385;28;20087;-83
2023/12/23 00:57:28;;;;;;;11.97;2.07;;;7.80;99.90;;;;;;5005781;28;20026;-82
2023/12/23 00:59:54;;;;;;;9.13;1.37;;;7.70;99.90;;;;;;5004500;28;20038;-83
2023/12/23 01:02:20;;;;;;;9.87;0.90;;;7.80;99.90;;;;;;5004607;28;20040;-83
2023/12/23 01:04:46;;;;;;;12.23;1.00;;;7.70;99.90;;;;;;5004640;28;20093;-82
2023/12/23 01:07:12;;;;;;;10.87;1.40;;;7.70;99.90;;;;;;5003412;28;20089;-82
2023/12/23 01:09:37;;;;;;;11.97;1.30;;;7.70;99.90;;;;;;5005858;28;20061;-82
2023/12/23 01:12:04;;;;;;;12.17;1.67;;;7.70;99.90;;;;;;5004035;28;20168;-82
2023/12/23 01:14:29;;;;;;;11.17;0.87;;;7.70;99.90;;;;;;5005621;28;20025;-84
2023/12/23 01:16:55;;;;;;;12.43;1.40;;;7.70;99.90;;;;;;5003894;28;20526;-83
2023/12/23 01:19:21;;;;;;;14.10;1.07;;;7.70;99.90;;;;;;5004355;28;20038;-83
2023/12/23 01:21:47;;;;;;;9.23;1.53;;;7.70;99.90;;;;;;5005073;28;20022;-83
2023/12/23 01:24:13;;;;;;;8.80;1.00;;;7.70;99.90;;;;;;5003625;28;20029;-83
2023/12/23 01:26:40;;;;;;;5.83;0.80;;;7.70;99.90;;;;;;5005212;28;20045;-83
2023/12/23 01:29:05;;;;;;;5.77;0.70;;;7.70;99.90;;;;;;5000181;28;20093;-83
2023/12/23 01:31:31;;;;;;;10.63;1.40;;;7.70;99.90;;;;;;5001822;28;20030;-83
2023/12/23 01:33:57;;;;;;;8.60;0.83;;;7.70;99.90;;;;;;5000075;28;20030;-83
2023/12/23 01:36:22;;;;;;;8.37;1.13;;;7.80;99.90;;;;;;5001346;28;20435;-83
2023/12/23 01:38:48;;;;;;;6.50;0.90;;;7.70;99.90;;;;;;5000912;28;20274;-83
2023/12/23 01:41:14;;;;;;;5.10;0.80;;;7.80;99.90;;;;;;5002376;28;20034;-84
2023/12/23 01:43:40;;;;;;;8.33;1.27;;;7.80;99.90;;;;;;5001716;28;20080;-83
2023/12/23 01:46:06;;;;;;;6.90;1.03;;;7.80;99.90;;;;;;5000120;28;20022;-84
2023/12/23 01:48:37;;;;;;;10.27;1.67;;;7.80;99.90;;;;;;5001410;28;20058;-84
2023/12/23 01:51:03;;;;;;;12.40;1.03;;;7.80;99.90;;;;;;5000126;28;20117;-83
2023/12/23 01:53:31;;;;;;;15.57;1.83;;;7.80;99.90;;;;;;5001555;28;20022;-83
2023/12/23 01:55:57;;;;;;;15.30;1.10;;;7.80;99.90;;;;;;5001027;28;20030;-82
2023/12/23 01:58:23;;;;;;;12.07;1.20;;;7.80;99.90;;;;;;5000798;28;20081;-82
2023/12/23 02:00:49;;;;;;;12.53;1.00;;;7.70;99.90;;;;;;5001017;28;20034;-83
2023/12/23 02:03:15;;;;;;;10.97;1.30;;;7.70;99.90;;;;;;4999829;28;20022;-82
2023/12/23 02:05:41;;;;;;;11.03;1.50;;;7.70;99.90;;;;;;5001675;28;20489;-82
2023/12/23 02:08:06;;;;;;;10.97;1.40;;;7.70;99.90;;;;;;4999850;28;20023;-82
2023/12/23 02:10:33;;;;;;;5.73;0.80;;;7.80;99.90;;;;;;4998821;28;20049;-83
2023/12/23 02:13:20;;;;;;;6.90;0.50;;;7.80;99.90;;;;;;4991698;28;20033;-83
2023/12/23 02:15:47;;;;;;;8.00;0.70;;;7.80;99.90;;;;;;5000331;28;20030;-82
2023/12/23 02:18:13;;;;;;;5.27;0.70;;;7.80;99.90;;;;;;5001034;28;20029;-82
2023/12/23 02:20:38;;;;;;;11.10;0.90;;;7.70;99.90;;;;;;4999568;28;20542;-83
2023/12/23 02:23:04;;;;;;;3.53;0.53;;;7.70;99.90;;;;;;5001430;28;20019;-83
2023/12/23 02:25:30;;;;;;;8.27;1.07;;;7.70;99.90;;;;;;5000235;28;20606;-83
2023/12/23 02:28:05;;;;;;;7.23;1.43;;;7.70;99.90;;;;;;5001491;28;20022;-83
2023/12/23 02:30:32;;;;;;;8.73;1.13;;;7.70;99.90;;;;;;5003099;28;20049;-84
2023/12/23 02:32:58;;;;;;;8.53;1.53;;;7.70;99.90;;;;;;5000468;28;20022;-84
2023/12/23 02:35:27;;;;;;;11.07;1.00;;;7.70;99.90;;;;;;5001016;28;20019;-83
2023/12/23 02:37:54;;;;;;;11.43;1.20;;;7.70;99.90;;;;;;4999391;28;20077;-84
2023/12/23 02:40:21;;;;;;;14.63;1.20;;;7.70;99.90;;;;;;5000866;28;20031;-83
2023/12/23 02:42:46;;;;;;;10.97;1.33;;;7.70;99.90;;;;;;4999683;28;20030;-83
2023/12/23 02:45:12;;;;;;;10.97;1.00;;;7.70;99.90;;;;;;5000350;28;20062;-84
2023/12/23 02:47:38;;;;;;;9.93;1.20;;;7.70;99.90;;;;;;5001905;28;20077;-84
2023/12/23 02:50:04;;;;;;;7.00;1.03;;;7.70;99.90;;;;;;5000083;28;20084;-84
2023/12/23 02:52:29;;;;;;;7.57;1.13;;;7.70;99.90;;;;;;5001145;28;20026;-84
2023/12/23 02:54:55;;;;;;;11.60;2.57;;;7.70;99.90;;;;;;4999209;28;20057;-84
2023/12/23 02:57:21;;;;;;;8.37;1.20;;;7.70;99.90;;;;;;5000488;28;20030;-83
2023/12/23 02:59:47;;;;;;;9.90;2.27;;;7.70;99.90;;;;;;4999646;28;20043;-83
2023/12/23 03:02:12;;;;;;;8.23;1.50;;;7.70;99.90;;;;;;5000311;28;20037;-84
2023/12/23 03:04:39;;;;;;;10.53;2.43;;;7.70;99.90;;;;;;5000007;28;20030;-83
2023/12/23 03:07:05;;;;;;;10.80;4.17;;;7.80;99.90;;;;;;4983949;28;20030;-84
2023/12/23 03:09:32;;;;;;;10.00;3.53;;;7.80;99.90;;;;;;5000322;28;20018;-83
2023/12/23 03:11:57;;;;;;;10.13;3.67;;;7.90;99.90;;;;;;4999127;28;20022;-84
2023/12/23 03:14:23;;;;;;;16.27;4.93;;;7.90;99.90;;;;;;5000707;28;20061;-83
2023/12/23 03:16:49;;;;;;;16.77;4.80;;;8.00;99.90;;;;;;4998763;28;20031;-83
2023/12/23 03:19:15;;;;;;;16.47;6.03;;;8.10;99.90;;;;;;5000299;28;20066;-83
2023/12/23 03:21:45;;;;;;;20.40;5.23;;;8.10;99.90;;;;;;4999895;28;20466;-83
2023/12/23 03:24:11;;;;;;;21.13;6.47;;;8.20;99.90;;;;;;5000884;28;20093;-83
2023/12/23 03:26:37;;;;;;;15.80;5.37;;;8.30;99.90;;;;;;5000340;28;20033;-83
2023/12/23 03:29:05;;;;;;;16.30;5.07;;;8.30;99.90;;;;;;5007641;28;20042;-83
2023/12/23 03:31:34;;;;;;;16.03;5.93;;;8.40;99.90;;;;;;5007226;28;20018;-83
2023/12/23 03:34:02;;;;;;;15.53;5.37;;;8.40;99.90;;;;;;5024492;28;20021;-84
2023/12/23 03:36:28;;;;;;;17.60;5.23;;;8.50;99.90;;;;;;5007908;28;20053;-83
2023/12/23 03:38:55;;;;;;;18.30;5.67;;;8.50;99.90;;;;;;5008310;28;20022;-83
2023/12/23 03:41:21;;;;;;;13.73;4.50;;;8.60;99.90;;;;;;5008170;28;20037;-82
2023/12/23 03:43:47;;;;;;;18.63;4.93;;;8.60;99.90;;;;;;5007166;28;20029;-83
2023/12/23 03:46:13;;;;;;;22.93;3.80;;;8.60;99.90;;;;;;5005326;28;20029;-83
2023/12/23 03:48:38;;;;;;;18.43;3.83;;;8.70;99.90;;;;;;5024830;28;20049;-83
2023/12/23 03:51:04;;;;;;;11.40;2.83;;;8.70;99.90;;;;;;5005370;28;20057;-82
2023/12/23 03:53:30;;;;;;;18.10;2.63;;;8.80;99.90;;;;;;5006617;28;20025;-83
2023/12/23 03:55:55;;;;;;;21.10;3.23;;;8.80;99.90;;;;;;5005675;28;20080;-83
2023/12/23 03:58:21;;;;;;;13.00;2.87;;;8.80;99.90;;;;;;5023787;28;20033;-84
2023/12/23 04:00:47;;;;;;;15.47;2.37;;;8.80;99.90;;;;;;5006008;28;20037;-83
2023/12/23 04:03:13;;;;;;;12.27;2.50;;;8.90;99.90;;;;;;5005332;28;20018;-84
2023/12/23 04:05:39;;;;;;;18.43;2.93;;;8.90;99.90;;;;;;5006988;28;20125;-85
2023/12/23 04:08:05;;;;;;;20.53;2.40;;;9.00;99.90;;;;;;5005015;28;20044;-83
2023/12/23 04:10:31;;;;;;;12.90;2.43;;;9.10;99.90;;;;;;5006628;28;20522;-83
2023/12/23 04:12:58;;;;;;;14.57;2.10;;;9.10;99.90;;;;;;5023276;28;20018;-84
2023/12/23 04:15:24;;;;;;;15.67;2.40;;;9.10;99.90;;;;;;5005746;28;20022;-84
2023/12/23 04:17:50;;;;;;;17.20;2.63;;;9.20;99.90;;;;;;5006139;28;20032;-84
2023/12/23 04:20:18;;;;;;;12.47;1.80;;;9.20;99.90;;;;;;5004717;28;20038;-83
2023/12/23 04:22:47;;;;;;;18.30;2.27;;;9.30;99.90;;;;;;5006358;28;20022;-84
2023/12/23 04:25:13;;;;;;;14.57;1.73;;;9.30;99.90;;;;;;5004484;28;20026;-84
2023/12/23 04:27:39;;;;;;;12.50;1.97;;;9.40;99.90;;;;;;5006217;28;20026;-83
2023/12/23 04:30:05;;;;;;;13.10;1.40;;;9.40;99.90;;;;;;5001906;28;20051;-84
2023/12/23 04:32:31;;;;;;;14.30;1.60;;;9.50;99.90;;;;;;5002571;28;20041;-84
2023/12/23 04:34:59;;;;;;;11.47;1.63;;;9.40;99.90;;;;;;5001645;28;20026;-85
2023/12/23 04:37:25;;;;;;;14.07;1.70;;;9.50;99.90;;;;;;5001532;28;20372;-85
2023/12/23 04:39:51;;;;;;;14.47;2.10;;;9.50;99.90;;;;;;5002954;28;20041;-84
2023/12/23 04:42:16;;;;;;;13.17;1.87;;;9.50;99.90;;;;;;5000695;28;20026;-84
2023/12/23 04:44:42;;;;;;;11.30;1.67;;;9.50;99.90;;;;;;5002935;28;20387;-84
2023/12/23 04:47:08;;;;;;;12.27;1.87;;;9.50;99.90;;;;;;5001657;28;20117;-84
2023/12/23 04:49:33;;;;;;;14.87;1.93;;;9.50;99.90;;;;;;5003590;28;20015;-84
2023/12/23 04:51:59;;;;;;;10.97;2.33;;;9.50;99.90;;;;;;5002283;28;20022;-84
2023/12/23 04:54:25;;;;;;;15.60;2.37;;;9.50;99.90;;;;;;5001878;28;20026;-84
2023/12/23 04:56:51;;;;;;;16.25;2.10;;;9.40;99.90;;;;;;5002369;28;20105;-84
2023/12/23 04:59:17;;;;;;;11.93;1.60;;;9.50;99.90;;;;;;5000919;28;20038;-84
2023/12/23 05:01:42;;;;;;;14.33;2.17;;;9.50;99.90;;;;;;5002533;28;20019;-84
2023/12/23 05:04:08;;;;;;;17.67;2.80;;;9.50;99.90;;;;;;5000968;28;20073;-85
2023/12/23 05:06:34;;;;;;;13.07;1.40;;;9.50;99.90;;;;;;5002051;28;20489;-84
2023/12/23 05:08:59;;;;;;;14.03;1.97;;;9.50;99.90;;;;;;5001542;28;20033;-84
2023/12/23 05:11:25;;;;;;;12.27;1.97;;;9.50;99.90;;;;;;5001231;28;20022;-84
2023/12/23 05:13:51;;;;;;;13.33;1.60;;;9.50;99.90;;;;;;5002168;28;20034;-85
2023/12/23 05:16:17;;;;;;;12.83;2.30;;;9.50;99.90;;;;;;4984674;28;20056;-85
2023/12/23 05:18:42;;;;;;;12.50;2.17;;;9.60;99.90;;;;;;5002023;28;20037;-84
2023/12/23 05:21:08;;;;;;;14.40;1.20;;;9.50;99.90;;;;;;5000209;28;20049;-85
2023/12/23 05:23:34;;;;;;;10.93;1.53;;;9.60;99.90;;;;;;5001995;28;20588;-84
2023/12/23 05:25:59;;;;;;;16.50;1.93;;;9.60;99.90;;;;;;5001095;28;20033;-84
2023/12/23 05:28:25;;;;;;;10.83;1.37;;;9.60;99.90;;;;;;5000978;28;20023;-84
2023/12/23 05:30:51;;;;;;;9.73;1.20;;;9.60;99.90;;;;;;5004988;28;20076;-84
2023/12/23 05:33:18;;;;;;;12.37;1.77;;;9.60;99.90;;;;;;4987850;28;20030;-85
2023/12/23 05:35:44;;;;;;;11.77;1.67;;;9.70;99.90;;;;;;4986164;28;20022;-83
2023/12/23 05:38:10;;;;;;;10.85;1.25;;;9.70;99.90;;;;;;4986345;28;20108;-84
2023/12/23 05:40:37;;;;;;;11.53;1.53;;;9.70;99.90;;;;;;4985829;28;20530;-84
2023/12/23 05:43:03;;;;;;;11.33;2.27;;;9.70;99.90;;;;;;4984672;28;20094;-84
2023/12/23 05:45:30;;;;;;;14.37;2.07;;;9.70;99.90;;;;;;4984877;28;20026;-85
2023/12/23 05:47:56;;;;;;;10.47;1.50;;;9.70;99.90;;;;;;4985167;28;20022;-85
2023/12/23 05:50:21;;;;;;;10.75;1.42;;;9.70;99.90;;;;;;4983714;28;20033;-85
2023/12/23 05:52:47;;;;;;;15.03;2.37;;;9.70;99.90;;;;;;4985165;28;20014;-85
2023/12/23 05:55:13;;;;;;;14.67;1.97;;;9.70;99.90;;;;;;4983996;28;20360;-84
2023/12/23 05:57:39;;;;;;;12.00;1.87;;;9.60;99.90;;;;;;4985924;28;20018;-85
2023/12/23 06:00:05;;;;;;;13.57;2.33;;;9.60;99.90;;;;;;5002076;28;20145;-83
2023/12/23 06:02:33;;;;;;;15.17;2.43;;;9.50;99.90;;;;;;5002478;28;20022;-83
2023/12/23 06:04:58;;;;;;;11.53;2.20;;;9.50;99.90;;;;;;5002124;28;20050;-85
2023/12/23 06:07:24;;;;;;;16.00;2.50;;;9.50;99.90;;;;;;4984449;28;20018;-86
2023/12/23 06:09:50;;;;;;;15.13;2.37;;;9.40;99.90;;;;;;5002567;28;20082;-84
2023/12/23 06:12:15;;;;;;;17.20;2.57;;;9.40;99.90;;;;;;4983743;28;20030;-85
2023/12/23 06:14:41;;;;;;;10.73;2.10;;;9.40;99.90;;;;;;4985443;28;20014;-85
2023/12/23 06:17:08;;;;;;;21.77;2.83;;;9.30;99.90;;;;;;4984014;28;20046;-85
2023/12/23 06:19:34;;;;;;;20.93;3.07;;;9.30;99.90;;;;;;5002060;28;20592;-84
2023/12/23 06:22:00;;;;;;;21.67;2.83;;;9.30;99.90;;;;;;5000774;28;20019;-84
2023/12/23 06:24:25;;;;;;;17.97;2.43;;;9.30;99.90;;;;;;4983942;28;20062;-83
2023/12/23 06:26:51;;;;;;;17.90;2.67;;;9.20;99.90;;;;;;4984725;28;20061;-82
2023/12/23 06:29:16;;;;;;;18.93;3.30;;;9.20;99.90;;;;;;4980159;28;20081;-83
2023/12/23 06:31:42;;;;;;;21.10;2.30;;;9.20;99.90;;;;;;4981925;28;20086;-83
2023/12/23 06:34:08;;;;;;;21.07;2.80;;;9.10;99.90;;;;;;4979871;28;20026;-84
2023/12/23 06:36:33;;;;;;;13.90;1.70;;;9.20;99.90;;;;;;4981419;28;20095;-84
2023/12/23 06:38:59;;;;;;;21.97;3.20;;;9.20;99.90;;;;;;4982306;28;20054;-85
2023/12/23 06:41:25;;;;;;;14.17;2.67;;;9.20;99.90;;;;;;4980758;28;20043;-82
2023/12/23 06:43:50;;;;;;;14.93;2.90;;;9.20;99.90;;;;;;4981267;28;20027;-85
2023/12/23 06:46:16;;;;;;;17.00;2.70;;;9.20;99.90;;;;;;4980247;28;20027;-85
2023/12/23 06:48:42;;;;;;;19.13;2.80;;;9.20;99.90;;;;;;4981525;28;20022;-82
2023/12/23 06:51:07;;;;;;;14.53;3.57;;;9.20;99.90;;;;;;4979945;28;20033;-85
2023/12/23 06:53:33;;;;;;;18.77;2.67;;;9.20;99.90;;;;;;4981729;28;20073;-85
2023/12/23 06:55:59;;;;;;;21.57;3.13;;;9.20;99.90;;;;;;4980768;28;20035;-83
2023/12/23 06:58:26;;;;;;;17.50;2.50;;;9.20;99.90;;;;;;4980985;28;20074;-83
2023/12/23 07:00:52;;;;;;;18.90;3.03;;;9.20;99.90;;;;;;4981257;28;20027;-83
2023/12/23 07:03:18;;;;;;;14.90;2.50;;;9.20;99.90;;;;;;4980502;28;20121;-84
2023/12/23 07:05:43;;;;;;;18.90;3.33;;;9.20;99.90;;;;;;4983672;28;20031;-84
2023/12/23 07:08:09;;;;;;;21.27;3.23;;;9.20;99.90;;;;;;4983581;28;20035;-84
2023/12/23 07:10:35;;;;;;;13.73;2.10;;;9.20;99.90;;;;;;4985640;28;20090;-83
2023/12/23 07:13:00;;;;;;;19.67;2.70;;;9.20;99.90;;;;;;4984492;28;20041;-84
2023/12/23 07:15:26;;;;;;;15.73;2.57;;;9.20;99.90;;;;;;4984551;28;20025;-84
2023/12/23 07:17:52;;;;;;;23.67;2.63;;;9.20;99.90;;;;;;4984287;28;20045;-84
2023/12/23 07:20:17;;;;;;;21.53;2.73;;;9.20;99.90;;;;;;4983896;28;20026;-84
2023/12/23 07:22:43;;;;;;;14.63;2.47;;;9.20;99.90;;;;;;4984463;28;20022;-83
2023/12/23 07:25:09;;;;;;;13.37;2.43;;;9.30;99.90;;;;;;4983460;28;20022;-84
2023/12/23 07:27:35;;;;;;;15.60;2.07;;;9.30;99.90;;;;;;4984913;28;20061;-85
2023/12/23 07:30:01;;;;;;;19.97;2.40;;;9.30;99.90;;;;;;4983005;28;20066;-84
2023/12/23 07:32:26;;;;;;;19.73;2.60;;;9.30;99.90;;;;;;4984527;28;20023;-83
2023/12/23 07:34:52;;;;;;;19.53;3.00;;;9.40;99.90;;;;;;4983755;28;20050;-84
2023/12/23 07:37:18;;;;;;;13.03;2.50;;;9.40;99.90;;;;;;4983579;28;20022;-82
2023/12/23 07:39:43;;;;;;;14.03;2.13;;;9.40;99.90;;;;;;4984384;28;20035;-83
2023/12/23 07:42:09;;;;;;;16.10;2.20;;;9.50;99.90;;;;;;4983045;28;20054;-83
2023/12/23 07:44:36;;;;;;;13.37;2.67;;;9.50;99.90;;;;;;4985931;28;20022;-83
2023/12/23 07:47:05;;;;;;;14.80;1.83;;;9.50;99.90;;;;;;4982997;28;20114;-83
2023/12/23 07:49:32;;;;;;;10.70;2.13;;;9.60;99.90;;;;;;4984075;28;20030;-84
2023/12/23 07:51:58;;;;;;;18.27;2.53;;;9.60;99.90;;;;;;4983101;28;20054;-83
2023/12/23 07:54:25;;;;;;;13.87;2.57;;;9.60;99.90;;;;;;4983289;28;20026;-84
2023/12/23 07:56:50;;;;;;;15.03;2.10;;;9.60;99.90;;;;;;5000186;28;20019;-84
2023/12/23 07:59:17;;;;;;;11.90;1.60;;;9.70;99.90;;;;;;4982349;28;20033;-84
2023/12/23 08:01:44;;;;;;;10.73;2.63;;;9.70;99.90;;;;;;4984025;28;20030;-81
2023/12/23 08:04:09;;;;;;;11.53;1.67;;;9.80;99.90;;;;;;4982721;28;20031;-80
2023/12/23 08:06:35;;;;;;;11.93;1.97;;;9.80;99.90;;;;;;4983815;28;20027;-81
2023/12/23 08:09:00;;;;;;;20.17;2.03;;;9.80;99.90;;;;;;4988797;28;20062;-80
2023/12/23 08:11:26;;;;;;;15.93;1.97;;;9.80;99.90;;;;;;5000590;28;20465;-82
2023/12/23 08:13:52;;;;;;;11.90;1.95;;;9.90;99.90;;;;;;5002098;28;20018;-82
2023/12/23 08:16:17;;;;;;;12.30;1.50;;;9.90;99.90;;;;;;5000103;28;20015;-82
2023/12/23 08:18:45;;;;;;;16.77;1.83;;;9.90;99.90;;;;;;5002542;28;20054;-82
2023/12/23 08:21:11;;;;;;;10.87;1.70;;;10.00;99.90;;;;;;5001885;28;20042;-82
2023/12/23 08:23:37;;;;;;;12.10;1.87;;;10.00;99.90;;;;;;5002624;28;20023;-82
2023/12/23 08:26:03;;;;;;;12.10;1.37;;;10.00;99.90;;;;;;5002169;28;20030;-81
2023/12/23 08:28:29;;;;;;;15.60;1.50;;;10.00;99.90;;;;;;5001496;28;20022;-83
2023/12/23 08:30:55;;;;;;;8.82;1.33;;;10.00;99.90;;;;;;5021521;28;20052;-82
2023/12/23 08:33:20;;;;;;;17.85;2.17;;;10.00;99.90;;;;;;5004315;28;20054;-81
2023/12/23 08:35:49;;;;;;;17.27;1.95;;;10.00;99.90;;;;;;5005269;28;20052;-80
2023/12/23 08:38:15;;;;;;;14.55;1.88;;;10.10;99.90;;;;;;5022325;28;20026;-82
2023/12/23 08:40:40;;;;;;;13.75;2.65;;;10.10;99.90;;;;;;5005870;28;20155;-81
2023/12/23 08:43:06;;;;;;;14.53;1.60;;;10.10;99.90;;;;;;5004913;28;20658;-82
2023/12/23 08:45:31;;;;;;;12.70;1.60;;;10.10;99.90;;;;;;5007539;28;20030;-81
2023/12/23 08:47:57;;;;;;;10.95;1.60;;;10.10;99.90;;;;;;5005904;28;20029;-81
2023/12/23 08:50:23;;;;;;;9.97;1.27;;;10.20;99.90;;;;;;5004465;28;20025;-82
2023/12/23 08:52:49;;;;;;;17.00;1.55;;;10.20;99.90;;;;;;5005870;28;20517;-82
2023/12/23 08:55:15;;;;;;;12.63;1.48;;;10.20;99.90;;;;;;5004763;28;20521;-82
2023/12/23 08:57:41;;;;;;;12.63;1.55;;;10.20;99.90;;;;;;5005647;28;20018;-82
2023/12/23 09:00:09;;;;;;;7.68;1.10;;;10.30;99.90;;;;;;5004797;28;20074;-81
2023/12/23 09:02:35;;;;;;;13.13;1.23;;;10.30;99.90;;;;;;5005716;28;20385;-83
2023/12/23 09:05:01;;;;;;;14.07;1.38;;;10.30;99.90;;;;;;5005309;28;20501;-81
2023/12/23 09:07:26;;;;;;;15.00;1.90;;;10.30;99.90;;;;;;5004947;28;20097;-83
2023/12/23 09:09:52;;;;;;;8.00;1.13;;;10.30;99.90;;;;;;5005477;28;20036;-82
2023/12/23 09:12:21;;;;;;;5.50;1.40;;;10.30;99.90;;;;;;5004335;28;20041;-84
2023/12/23 09:14:49;;;;;;;7.60;1.35;;;10.40;99.90;;;;;;5006001;28;20332;-83
2023/12/23 09:17:15;;;;;;;13.60;1.30;;;10.40;99.90;;;;;;5004508;28;20036;-83
2023/12/23 09:19:41;;;;;;;11.68;1.25;;;10.40;99.90;;;;;;5022383;28;20137;-83
2023/12/23 09:22:08;;;;;;;13.73;1.35;;;10.40;99.90;;;;;;5004833;28;20428;-83
2023/12/23 09:24:37;;;;;;;9.82;1.15;;;10.40;99.90;;;;;;5004283;28;20057;-83
2023/12/23 09:27:03;;;;;;;8.63;1.15;;;10.40;99.90;;;;;;5004411;28;20054;-81
2023/12/23 09:29:29;;;;;;;8.70;1.35;;;10.40;99.90;;;;;;4999508;28;20346;-81
2023/12/23 09:31:56;;;;;;;10.85;1.25;;;10.40;99.90;;;;;;5001319;28;20128;-81
2023/12/23 09:34:21;;;;;;;11.85;1.52;;;10.40;99.90;;;;;;5000048;28;20053;-81
2023/12/23 09:36:47;;;;;;;11.02;2.15;;;10.50;99.90;;;;;;5002153;28;20053;-81
2023/12/23 09:39:13;;;;;;;10.20;1.25;;;10.50;99.90;;;;;;5001239;28;20093;-82
2023/12/23 09:41:42;;;;;;;9.25;1.67;;;10.50;99.90;;;;;;5001088;28;20022;-81
2023/12/23 09:44:07;;;;;;;7.75;1.02;;;10.50;99.90;;;;;;5001625;28;20022;-82
2023/12/23 09:46:36;;;;;;;9.95;1.30;;;10.50;99.90;;;;;;5000095;28;20479;-82
2023/12/23 09:49:02;;;;;;;11.82;1.50;;;10.40;99.90;;;;;;5001727;28;20029;-83
2023/12/23 09:51:30;;;;;;;9.15;1.10;;;10.50;99.90;;;;;;4999639;28;20034;-82
2023/12/23 09:54:00;;;;;;;9.02;1.10;;;10.40;99.90;;;;;;5002088;28;20038;-82
2023/12/23 09:56:29;;;;;;;8.15;1.10;;;10.40;99.90;;;;;;5001068;28;20034;-82
2023/12/23 09:58:56;;;;;;;7.57;1.10;;;10.40;99.90;;;;;;5000560;28;20085;-82
2023/12/23 10:01:22;;;;;;;15.60;1.98;;;10.40;99.90;;;;;;5000637;28;20054;-83
2023/12/23 10:03:49;;;;;;;18.30;2.55;;;10.40;99.90;;;;;;4999642;28;20077;-82
2023/12/23 10:06:15;;;;;;;10.55;1.83;;;10.50;99.90;;;;;;5001099;28;20029;-82
2023/12/23 10:08:42;;;;;;;14.05;1.70;;;10.40;99.90;;;;;;4999524;28;20050;-82
2023/12/23 10:11:08;;;;;;;13.07;1.95;;;10.40;99.90;;;;;;5000385;28;20014;-82
2023/12/23 10:13:34;;;;;;;7.38;0.75;;;10.50;99.90;;;;;;4994959;28;20083;-81
2023/12/23 10:16:00;;;;;;;11.80;1.95;;;10.50;99.90;;;;;;4999788;28;20042;-81
2023/12/23 10:18:25;;;;;;;8.05;1.02;;;10.50;99.90;;;;;;4999456;28;20015;-82
2023/12/23 10:20:51;;;;;;;11.98;1.70;;;10.50;99.90;;;;;;4999391;28;20026;-83
2023/12/23 10:23:17;;;;;;;10.82;1.33;;;10.50;99.90;;;;;;4998220;28;20019;-83
2023/12/23 10:25:43;;;;;;;8.90;1.15;;;10.50;99.90;;;;;;4999151;28;20502;-82
2023/12/23 10:28:10;;;;;;;10.45;1.20;;;10.60;99.90;;;;;;5000262;28;20041;-82
2023/12/23 10:30:41;;;;;;;10.90;1.73;;;10.50;99.90;;;;;;4999538;28;20081;-82
2023/12/23 10:33:11;;;;;;;14.82;1.70;;;10.50;99.90;;;;;;5000249;28;20038;-82
2023/12/23 10:35:48;;;;;;;12.48;1.23;;;10.50;99.90;;;;;;5000175;28;20027;-82
2023/12/23 10:38:22;;;;;;;13.88;1.73;;;10.60;99.90;;;;;;4999477;28;20054;-82
2023/12/23 10:40:59;;;;;;;12.05;1.23;;;10.60;99.90;;;;;;5005470;28;20084;-82
2023/12/23 10:43:25;;;;;;;8.32;1.27;;;10.60;99.90;;;;;;5003042;28;20022;-82
2023/12/23 10:45:53;;;;;;;15.90;2.05;;;10.60;99.90;;;;;;5003490;28;20034;-82
2023/12/23 10:48:21;;;;;;;10.35;1.63;;;10.60;99.90;;;;;;5003682;28;20100;-82
2023/12/23 10:50:47;;;;;;;12.82;1.40;;;10.60;99.90;;;;;;5002453;28;20045;-82
2023/12/23 10:53:16;;;;;;;10.18;1.20;;;10.60;99.90;;;;;;5002308;28;20084;-82
2023/12/23 10:55:43;;;;;;;14.27;1.70;;;10.60;99.90;;;;;;5002859;28;20049;-82
2023/12/23 10:58:10;;;;;;;10.77;1.10;;;10.60;99.90;;;;;;5003704;28;20460;-82
2023/12/23 11:00:36;;;;;;;10.93;1.55;;;10.60;99.90;;;;;;5002215;28;20045;-82
2023/12/23 11:03:03;;;;;;;7.88;1.77;;;10.70;99.90;;;;;;5003428;28;20054;-83
2023/12/23 11:05:32;;;;;;;10.30;1.48;;;10.60;99.90;;;;;;5003651;28;20034;-83
2023/12/23 11:08:01;;;;;;;11.45;1.10;;;10.60;99.90;;;;;;4987333;28;20038;-81
2023/12/23 11:10:30;;;;;;;11.05;1.77;;;10.70;99.90;;;;;;5002413;28;20152;-81
2023/12/23 11:12:56;;;;;;;13.57;1.65;;;10.70;99.90;;;;;;5003248;28;20108;-81
2023/12/23 11:15:23;;;;;;;11.77;1.42;;;10.70;99.90;;;;;;5003882;28;20026;-82
2023/12/23 11:17:49;;;;;;;10.43;1.63;;;10.70;99.90;;;;;;5003619;28;20022;-81
2023/12/23 11:20:35;;;;;;;11.90;1.40;;;10.70;99.90;;;;;;5003298;28;20046;-82
2023/12/23 11:23:26;;;;;;;8.10;1.17;;;10.70;99.90;;;;;;5004135;28;20034;-82
2023/12/23 11:25:54;;;;;;;15.95;1.40;;;10.70;99.90;;;;;;5002949;28;20062;-81
2023/12/23 11:28:20;;;;;;;13.20;1.35;;;10.70;99.90;;;;;;5003698;28;20036;-81
2023/12/23 11:30:51;;;;;;;11.13;1.27;;;10.70;99.90;;;;;;5003359;28;20049;-81
2023/12/23 11:33:22;;;;;;;10.43;1.60;;;10.80;99.90;;;;;;5002943;28;20065;-81
2023/12/23 11:35:48;;;;;;;7.68;1.05;;;10.80;99.90;;;;;;5003237;28;20042;-81
2023/12/23 11:38:14;;;;;;;11.80;1.48;;;10.80;99.90;;;;;;5002492;28;20022;-82
2023/12/23 11:40:40;;;;;;;11.13;1.40;;;10.90;99.90;;;;;;5002982;28;20069;-82
2023/12/23 11:43:05;;;;;;;8.27;1.88;;;10.90;99.90;;;;;;5002299;28;20025;-81
2023/12/23 11:45:31;;;;;;;9.50;1.45;;;10.90;99.90;;;;;;5002889;28;20033;-81
2023/12/23 11:47:57;;;;;;;5.90;0.70;;;10.90;99.90;;;;;;5002767;28;20023;-81
2023/12/23 11:50:23;;;;;;;5.38;0.95;;;11.00;99.90;;;;;;5002431;28;20045;-81
2023/12/23 11:52:48;;;;;;;8.75;1.48;;;11.00;99.90;;;;;;5001800;28;20054;-82
2023/12/23 11:55:16;;;;;;;8.52;0.90;;;11.00;99.90;;;;;;5000553;28;20022;-83
2023/12/23 11:57:42;;;;;;;11.05;1.17;;;11.10;99.90;;;;;;5002846;28;20045;-81
2023/12/23 12:00:08;;;;;;;6.35;0.70;;;11.10;99.90;;;;;;5001524;28;20510;-82
2023/12/23 12:02:34;;;;;;;8.77;1.08;;;11.10;99.90;;;;;;5002558;28;20050;-82
2023/12/23 12:05:00;;;;;;;4.22;0.93;;;11.10;99.90;;;;;;5002417;28;20030;-81
2023/12/23 12:07:26;;;;;;;8.02;1.02;;;11.10;99.90;;;;;;5001933;28;20019;-81
2023/12/23 12:09:52;;;;;;;7.80;1.08;;;11.10;99.90;;;;;;5001232;28;20037;-83
2023/12/23 12:12:18;;;;;;;5.10;0.65;;;11.10;99.90;;;;;;5003469;28;20391;-83
2023/12/23 12:14:44;;;;;;;11.98;1.15;;;11.10;99.90;;;;;;5003219;28;20054;-83
2023/12/23 12:17:09;;;;;;;9.23;0.88;;;11.10;99.90;;;;;;5002167;28;20110;-84
2023/12/23 12:19:36;;;;;;;9.13;1.08;;;11.10;99.90;;;;;;5019318;28;20045;-84
2023/12/23 12:22:03;;;;;;;10.13;1.42;;;11.10;99.90;;;;;;5002536;28;20033;-83
2023/12/23 12:24:30;;;;;;;8.20;0.80;;;11.20;99.90;;;;;;5002364;28;20037;-84
2023/12/23 12:26:59;;;;;;;4.93;0.90;;;11.20;99.90;;;;;;5003990;28;20030;-83
2023/12/23 12:29:25;;;;;;;8.23;0.88;;;11.20;99.90;;;;;;5003451;28;20041;-84
2023/12/23 12:31:54;;;;;;;5.88;0.80;;;11.20;99.90;;;;;;5023664;28;20046;-83
2023/12/23 12:34:24;;;;;;;5.45;0.80;;;11.20;99.90;;;;;;5004521;28;20018;-81
2023/12/23 12:36:53;;;;;;;6.32;0.93;;;11.20;99.90;;;;;;5006373;28;20029;-82
2023/12/23 12:39:19;;;;;;;6.35;0.88;;;11.20;99.90;;;;;;5005274;28;20017;-81
2023/12/23 12:41:49;;;;;;;10.30;1.02;;;11.20;99.90;;;;;;5005260;28;20022;-81